Startpagina
METAR-TAF:

METAR-TAF

Vliegvelden :

Montréal-Pierre Elliott Trudeau International Airport

Montréal Trudeau, Québec, Canada

breedte: 45-28N, lengte: 073-45W, hoogte: 31 m

Actueel weer

Dit bericht is 10 minuten geleden gemaakt, om 15:00 UTC
Wind 3 kt uit variabele richting
Temperatuur 24°C
Vochtigheid 61%
Druk 1019 hPa
Zicht: 24.1 km
Weinig wolken op 2000 ft
Weinig wolken op 25000 ft

METAR: CYUL 191500Z VRB03KT 15SM FEW020 FEW250 24/16 A3008 RMK CF1CI1 CF TR CI TR SLP188 DENSITY ALT 1000FT

Tijdstip: 11:10 (15:10 UTC)

Verwachting

Dit bericht is 28 minuten geleden gemaakt, om 14:42 UTC
Verwachting geldig van 19 om 15 UTC tot 20 om 12 UTC
Wind 5 kt uit het noordoosten
Zicht: 10 km
Weinig wolken op 24000 ft
Wijzigt naar
van 19 om 15 UTC tot 19 om 16 UTC
Wind 8 kt uit het noordoosten
Wijzigt naar
van 20 om 08 UTC tot 20 om 10 UTC
Wind 3 kt uit variabele richting

TAF: CYUL 191442Z 1915/2012 04005KT P6SM FEW240 BECMG 1915/1916 05008KT BECMG 2008/2010 VRB03KT RMK NXT FCST BY 191800Z

Waarnemingen en weersverwachtingen van meer dan 4000 vliegvelden (METAR en TAF).

De beschikbare stations zijn de gele en rode punten op de kaart.

Ga met uw muis naar het station om de naam te zien.

Klik dan om waarnemingen en weersverwachtingen te zien.

kaart wijzigen: klik op de groene knoppen met een zwart kruis om in te zoomen, op de groene knop met een streepje om uit te zoomen of op de groene pijlen voor aangrenzende kaarten.


METAR-TAF: